Time;durP1;ratioP1;P1;durP2;ratioP2;P2;SDS_P1;SDS_P2;PMS_P1;PMS_P2;Temp;Humidity;BMP_temperature;BMP_pressure;BME280_temperature;BME280_humidity;BME280_pressure;Samples;Min_cycle;Max_cycle;Signal;HPM_P1;HPM_P2
2022/07/10 00:02:04;;;;;;;15.82;1.30;;;14.10;99.90;;;;;;5039708;28;20053;-75
2022/07/10 00:04:29;;;;;;;13.57;2.08;;;14.20;99.90;;;;;;5005488;28;20042;-76
2022/07/10 00:06:57;;;;;;;11.93;1.45;;;14.20;99.90;;;;;;5020110;28;20056;-76
2022/07/10 00:09:24;;;;;;;8.07;1.35;;;14.10;99.90;;;;;;5021612;28;20509;-75
2022/07/10 00:11:50;;;;;;;14.57;0.90;;;14.10;99.90;;;;;;5039037;28;20049;-76
2022/07/10 00:14:16;;;;;;;11.18;1.33;;;14.00;99.90;;;;;;5038990;28;20365;-75
2022/07/10 00:16:41;;;;;;;12.18;1.92;;;14.00;99.90;;;;;;5021267;28;20044;-76
2022/07/10 00:19:07;;;;;;;12.07;1.50;;;13.90;99.90;;;;;;5020198;28;20042;-76
2022/07/10 00:21:33;;;;;;;12.20;1.60;;;13.90;99.90;;;;;;5034202;28;20049;-75
2022/07/10 00:23:58;;;;;;;9.43;1.60;;;13.90;99.90;;;;;;5034129;28;20421;-76
2022/07/10 00:26:24;;;;;;;14.30;1.52;;;13.90;99.90;;;;;;5000992;28;20408;-76
2022/07/10 00:28:50;;;;;;;14.32;1.33;;;13.90;99.90;;;;;;5001583;28;20470;-77
2022/07/10 00:31:16;;;;;;;8.18;0.90;;;13.90;99.90;;;;;;5034709;28;20052;-75
2022/07/10 00:33:41;;;;;;;11.45;1.38;;;14.00;99.90;;;;;;5017330;28;20049;-75
2022/07/10 00:36:07;;;;;;;13.82;1.23;;;13.90;99.90;;;;;;5017770;28;20137;-75
2022/07/10 00:38:33;;;;;;;14.30;1.27;;;14.00;99.90;;;;;;5001134;28;20053;-75
2022/07/10 00:40:59;;;;;;;12.82;1.10;;;13.90;99.90;;;;;;5001177;28;20448;-77
2022/07/10 00:43:25;;;;;;;12.25;1.10;;;14.00;99.90;;;;;;5018582;28;20057;-76
2022/07/10 00:45:50;;;;;;;12.45;1.30;;;13.90;99.90;;;;;;5017992;28;20049;-77
2022/07/10 00:48:16;;;;;;;11.32;1.15;;;14.00;99.90;;;;;;5000592;28;20121;-77
2022/07/10 00:50:44;;;;;;;11.73;1.30;;;13.90;99.90;;;;;;5017385;28;20057;-76
2022/07/10 00:53:10;;;;;;;13.40;1.08;;;13.90;99.90;;;;;;5034847;28;20477;-76
2022/07/10 00:55:37;;;;;;;9.98;1.13;;;13.90;99.90;;;;;;5035183;28;20103;-77
2022/07/10 00:58:10;;;;;;;12.55;1.15;;;13.80;99.90;;;;;;5017047;28;20531;-77
2022/07/10 01:00:39;;;;;;;14.32;1.30;;;13.80;99.90;;;;;;5017527;28;20041;-77
2022/07/10 01:03:05;;;;;;;7.80;1.05;;;13.80;99.90;;;;;;5034757;28;20049;-75
2022/07/10 01:05:31;;;;;;;17.42;2.00;;;13.80;99.90;;;;;;5016821;28;20049;-76
2022/07/10 01:07:57;;;;;;;17.77;1.27;;;13.80;99.90;;;;;;5017296;28;20448;-76
2022/07/10 01:10:23;;;;;;;12.77;1.13;;;13.80;99.90;;;;;;5016823;28;20056;-75
2022/07/10 01:12:48;;;;;;;9.23;1.33;;;13.70;99.90;;;;;;5000548;28;20396;-77
2022/07/10 01:15:15;;;;;;;10.60;1.20;;;13.70;99.90;;;;;;5016945;28;20095;-76
2022/07/10 01:17:41;;;;;;;16.13;2.22;;;13.60;99.90;;;;;;5017184;28;20061;-75
2022/07/10 01:20:08;;;;;;;15.32;1.27;;;13.50;99.90;;;;;;5033962;28;20461;-75
2022/07/10 01:22:36;;;;;;;15.80;1.40;;;13.50;99.90;;;;;;5016317;28;20099;-75
2022/07/10 01:25:02;;;;;;;12.35;1.30;;;13.40;99.90;;;;;;4999782;28;20071;-75
2022/07/10 01:27:28;;;;;;;10.18;1.20;;;13.30;99.90;;;;;;5016511;28;20049;-75
2022/07/10 01:29:54;;;;;;;15.57;1.23;;;13.30;99.90;;;;;;5016958;28;20495;-74
2022/07/10 01:32:20;;;;;;;11.50;1.38;;;13.20;99.90;;;;;;5001358;28;20120;-76
2022/07/10 01:34:47;;;;;;;11.23;1.42;;;13.20;99.90;;;;;;5016396;28;20180;-76
2022/07/10 01:37:13;;;;;;;11.10;1.20;;;13.10;99.90;;;;;;5000518;28;20061;-75
2022/07/10 01:39:38;;;;;;;14.20;1.73;;;13.10;99.90;;;;;;5015851;28;20056;-75
2022/07/10 01:42:04;;;;;;;14.57;1.35;;;13.00;99.90;;;;;;5033448;28;20045;-76
2022/07/10 01:44:30;;;;;;;10.50;1.35;;;13.00;99.90;;;;;;5033779;28;20063;-76
2022/07/10 01:46:56;;;;;;;16.08;1.70;;;12.90;99.90;;;;;;5033526;28;20053;-75
2022/07/10 01:49:21;;;;;;;9.43;1.40;;;12.90;99.90;;;;;;5015688;28;20459;-74
2022/07/10 01:51:47;;;;;;;9.20;1.38;;;12.80;99.90;;;;;;5033414;28;20175;-75
2022/07/10 01:54:13;;;;;;;11.10;1.38;;;12.80;99.90;;;;;;5034184;28;20050;-76
2022/07/10 01:56:38;;;;;;;15.90;1.50;;;12.70;99.90;;;;;;5033814;28;20380;-75
2022/07/10 01:59:04;;;;;;;10.85;1.40;;;12.70;99.90;;;;;;5031947;28;20044;-75
2022/07/10 02:01:31;;;;;;;15.50;1.55;;;12.60;99.90;;;;;;5033493;28;20068;-76
2022/07/10 02:06:41;;;;;;;12.95;1.45;;;12.70;99.90;;;;;;5034167;28;20081;-75
2022/07/10 02:09:07;;;;;;;14.00;1.63;;;12.70;99.90;;;;;;5015638;28;20103;-75
2022/07/10 02:11:33;;;;;;;14.57;1.75;;;12.60;99.90;;;;;;5033487;28;20053;-74
2022/07/10 02:13:58;;;;;;;16.25;1.52;;;12.70;99.90;;;;;;4999180;28;20052;-74
2022/07/10 02:16:25;;;;;;;15.23;1.35;;;12.60;99.90;;;;;;5033354;28;20057;-74
2022/07/10 02:18:51;;;;;;;17.20;1.98;;;12.60;99.90;;;;;;5032791;28;20179;-75
2022/07/10 02:21:16;;;;;;;12.27;1.30;;;12.60;99.90;;;;;;5033146;28;20080;-76
2022/07/10 02:23:42;;;;;;;8.95;1.10;;;12.50;99.90;;;;;;5033142;28;20064;-74
2022/07/10 02:26:08;;;;;;;16.70;1.73;;;12.50;99.90;;;;;;5015634;28;20399;-76
2022/07/10 02:28:34;;;;;;;9.90;1.03;;;12.50;99.90;;;;;;5034966;28;20045;-76
2022/07/10 02:30:59;;;;;;;11.48;1.58;;;12.50;99.90;;;;;;5001116;28;20314;-75
2022/07/10 02:33:25;;;;;;;12.70;1.05;;;12.40;99.90;;;;;;5034576;28;20049;-75
2022/07/10 02:35:51;;;;;;;11.30;1.20;;;12.40;99.90;;;;;;5000398;28;20486;-75
2022/07/10 02:38:17;;;;;;;9.38;1.20;;;12.40;99.90;;;;;;5033293;28;20053;-75
2022/07/10 02:40:43;;;;;;;13.02;1.95;;;12.40;99.90;;;;;;5016101;28;20065;-76
2022/07/10 02:43:09;;;;;;;13.85;1.58;;;12.30;99.90;;;;;;5014306;28;20136;-76
2022/07/10 02:45:34;;;;;;;15.98;1.75;;;12.30;99.90;;;;;;5014761;28;20096;-77
2022/07/10 02:48:00;;;;;;;10.57;1.10;;;12.30;99.90;;;;;;5031374;28;20045;-77
2022/07/10 02:50:26;;;;;;;13.35;1.63;;;12.30;99.90;;;;;;4998956;28;20045;-75
2022/07/10 02:52:52;;;;;;;9.20;1.30;;;12.40;99.90;;;;;;5032576;28;20132;-76
2022/07/10 02:55:17;;;;;;;12.55;1.27;;;12.40;99.90;;;;;;4998660;28;20041;-75
2022/07/10 02:57:43;;;;;;;6.70;1.02;;;12.50;99.90;;;;;;5031441;28;20045;-76
2022/07/10 03:00:10;;;;;;;17.58;1.58;;;12.50;99.90;;;;;;4998561;28;20042;-76
2022/07/10 03:02:35;;;;;;;10.35;1.33;;;12.50;99.90;;;;;;4998664;28;20444;-76
2022/07/10 03:05:01;;;;;;;13.00;1.17;;;12.50;99.90;;;;;;5032980;28;20060;-75
2022/07/10 03:07:27;;;;;;;15.88;1.25;;;12.40;99.90;;;;;;5033109;28;20189;-77
2022/07/10 03:09:53;;;;;;;15.05;1.55;;;12.40;99.90;;;;;;5034032;28;20045;-76
2022/07/10 03:12:19;;;;;;;14.38;1.42;;;12.40;99.90;;;;;;5032677;28;20068;-76
2022/07/10 03:14:44;;;;;;;16.92;1.48;;;12.30;99.90;;;;;;5014790;28;20050;-76
2022/07/10 03:17:10;;;;;;;11.07;1.70;;;12.40;99.90;;;;;;5015552;28;20227;-76
2022/07/10 03:19:36;;;;;;;16.63;1.20;;;12.30;99.90;;;;;;5014580;28;20053;-76
2022/07/10 03:22:02;;;;;;;10.85;1.08;;;12.30;99.90;;;;;;4999232;28;20046;-76
2022/07/10 03:24:27;;;;;;;9.45;1.23;;;12.20;99.90;;;;;;5033044;28;20049;-75
2022/07/10 03:26:53;;;;;;;18.67;1.40;;;12.30;99.90;;;;;;5014366;28;20058;-74
2022/07/10 03:29:19;;;;;;;13.45;1.27;;;12.30;99.90;;;;;;5032356;28;20041;-74
2022/07/10 03:31:44;;;;;;;12.68;1.13;;;12.40;99.90;;;;;;4982802;28;20050;-75
2022/07/10 03:34:10;;;;;;;8.88;0.85;;;12.50;99.90;;;;;;5032750;28;20127;-80
2022/07/10 03:36:36;;;;;;;17.25;1.45;;;12.60;99.90;;;;;;4998192;28;20370;-76
2022/07/10 03:39:02;;;;;;;11.63;1.20;;;12.70;99.90;;;;;;5014979;28;20042;-74
2022/07/10 03:41:27;;;;;;;13.63;1.42;;;12.80;99.90;;;;;;5014233;28;20164;-73
2022/07/10 03:43:53;;;;;;;16.17;1.85;;;12.80;99.90;;;;;;5015191;28;20045;-75
2022/07/10 03:46:19;;;;;;;14.52;1.60;;;12.80;99.90;;;;;;5032073;28;20052;-76
2022/07/10 03:48:45;;;;;;;12.98;1.20;;;12.90;99.90;;;;;;4982360;28;20053;-74
2022/07/10 03:51:10;;;;;;;11.07;1.55;;;12.90;99.90;;;;;;5014936;28;20049;-76
2022/07/10 03:53:37;;;;;;;13.27;1.10;;;13.00;99.90;;;;;;5015093;28;20052;-74
2022/07/10 03:56:04;;;;;;;9.98;0.98;;;13.00;99.90;;;;;;5035985;28;20450;-76
2022/07/10 03:58:30;;;;;;;14.90;1.38;;;13.10;99.90;;;;;;5018089;28;20508;-75
2022/07/10 04:00:56;;;;;;;14.32;1.00;;;13.10;99.90;;;;;;5036154;28;20053;-76
2022/07/10 04:03:22;;;;;;;12.23;1.42;;;13.20;99.90;;;;;;5018052;28;20085;-76
2022/07/10 04:05:48;;;;;;;17.20;1.67;;;13.20;99.90;;;;;;5018147;28;20057;-75
2022/07/10 04:08:13;;;;;;;16.55;1.20;;;13.20;99.90;;;;;;5018364;28;20053;-75
2022/07/10 04:10:39;;;;;;;16.63;1.45;;;13.20;99.90;;;;;;5036738;28;20045;-75
2022/07/10 04:13:05;;;;;;;11.48;1.30;;;13.00;99.90;;;;;;5036230;28;20354;-76
2022/07/10 04:15:31;;;;;;;15.82;0.98;;;13.30;99.90;;;;;;5018002;28;20084;-76
2022/07/10 04:17:57;;;;;;;10.30;1.10;;;13.30;99.90;;;;;;5018566;28;20490;-76
2022/07/10 04:20:24;;;;;;;12.27;1.40;;;13.40;99.90;;;;;;5017849;28;20172;-76
2022/07/10 04:22:50;;;;;;;;;;;13.40;99.90;;;;;;5018377;28;20052;-77
2022/07/10 04:25:16;;;;;;;15.70;1.33;;;13.50;99.90;;;;;;5017829;28;19921;-77
2022/07/10 04:27:42;;;;;;;12.40;1.07;;;13.50;99.90;;;;;;5018143;28;20080;-75
2022/07/10 04:30:08;;;;;;;8.27;1.10;;;13.50;99.90;;;;;;5017779;28;20768;-76
2022/07/10 04:32:34;;;;;;;11.20;1.07;;;13.50;99.90;;;;;;5017557;28;20081;-76
2022/07/10 04:35:01;;;;;;;7.63;0.82;;;13.50;99.90;;;;;;5035750;28;20312;-76
2022/07/10 04:37:26;;;;;;;9.88;1.23;;;13.40;99.90;;;;;;5034360;28;20100;-75
2022/07/10 04:39:52;;;;;;;17.15;0.90;;;13.40;99.90;;;;;;5035325;28;20081;-74
2022/07/10 04:42:18;;;;;;;8.25;1.00;;;13.40;99.90;;;;;;5017103;28;20061;-76
2022/07/10 04:44:44;;;;;;;11.82;1.10;;;13.40;99.90;;;;;;5034929;28;20112;-76
2022/07/10 04:47:09;;;;;;;9.73;1.10;;;13.60;99.90;;;;;;5034882;28;20508;-75
2022/07/10 04:49:35;;;;;;;10.70;0.93;;;13.60;99.90;;;;;;5016893;28;20052;-75
2022/07/10 04:52:01;;;;;;;11.82;0.70;;;13.70;99.90;;;;;;4985715;28;20054;-76
2022/07/10 04:54:27;;;;;;;14.35;0.80;;;13.80;99.90;;;;;;5034551;28;20450;-77
2022/07/10 04:56:52;;;;;;;12.32;0.95;;;13.90;99.90;;;;;;5017044;28;20052;-76
2022/07/10 04:59:18;;;;;;;14.20;1.30;;;13.90;99.90;;;;;;5017045;28;20045;-76
2022/07/10 05:01:44;;;;;;;10.40;0.90;;;14.00;99.90;;;;;;5000763;28;20045;-74
2022/07/10 05:04:11;;;;;;;11.65;1.05;;;14.00;99.90;;;;;;5034651;28;20042;-73
2022/07/10 05:06:36;;;;;;;12.50;1.23;;;14.10;99.90;;;;;;5016281;28;20160;-76
2022/07/10 05:09:03;;;;;;;11.70;1.10;;;14.20;99.90;;;;;;5017684;28;20131;-74
2022/07/10 05:11:29;;;;;;;14.88;1.30;;;14.20;99.90;;;;;;5017920;28;20129;-75
2022/07/10 05:13:55;;;;;;;16.90;1.77;;;14.30;99.90;;;;;;5018469;28;20064;-75
2022/07/10 05:16:20;;;;;;;14.25;1.38;;;14.30;99.90;;;;;;5019386;28;20037;-76
2022/07/10 05:18:46;;;;;;;13.50;1.55;;;14.40;99.90;;;;;;5019283;28;20049;-75
2022/07/10 05:21:12;;;;;;;14.88;1.60;;;14.50;99.90;;;;;;5038047;28;20081;-76
2022/07/10 05:23:38;;;;;;;9.35;1.83;;;14.50;99.90;;;;;;5020606;28;20244;-74
2022/07/10 05:26:05;;;;;;;13.10;1.45;;;14.60;99.90;;;;;;5039166;28;20057;-76
2022/07/10 05:28:31;;;;;;;14.77;1.80;;;14.60;99.90;;;;;;5037479;28;20187;-78
2022/07/10 05:30:56;;;;;;;10.73;1.55;;;14.70;99.90;;;;;;5019557;28;20069;-76
2022/07/10 05:33:22;;;;;;;15.75;1.33;;;14.70;99.90;;;;;;5036131;28;20378;-76
2022/07/10 05:35:48;;;;;;;15.43;1.80;;;14.80;99.90;;;;;;5036962;28;20041;-76
2022/07/10 05:38:14;;;;;;;16.23;1.98;;;14.80;99.90;;;;;;5038063;28;20045;-76
2022/07/10 05:40:40;;;;;;;12.25;1.73;;;14.90;99.90;;;;;;5004329;28;20207;-76
2022/07/10 05:43:06;;;;;;;11.18;1.90;;;14.90;99.90;;;;;;5039717;28;20151;-76
2022/07/10 05:45:32;;;;;;;13.48;1.75;;;15.10;99.90;;;;;;5039200;28;20485;-76
2022/07/10 05:47:57;;;;;;;17.63;2.03;;;15.00;99.90;;;;;;5039689;28;20045;-77
2022/07/10 05:50:23;;;;;;;17.00;2.45;;;15.10;99.90;;;;;;5040999;28;20047;-77
2022/07/10 05:52:49;;;;;;;16.55;2.15;;;15.00;99.90;;;;;;5006027;28;20068;-76
2022/07/10 05:55:15;;;;;;;14.00;2.22;;;15.10;99.90;;;;;;5022639;28;20465;-76
2022/07/10 05:57:41;;;;;;;14.82;2.05;;;15.00;99.90;;;;;;5040686;28;20136;-76
2022/07/10 06:00:08;;;;;;;12.23;1.90;;;15.00;99.90;;;;;;5022602;28;20072;-75
2022/07/10 06:02:34;;;;;;;21.23;2.65;;;15.00;99.90;;;;;;5040699;28;20100;-76
2022/07/10 06:04:59;;;;;;;21.42;2.63;;;15.00;99.90;;;;;;5021491;28;20129;-74
2022/07/10 06:07:26;;;;;;;15.95;2.33;;;14.90;99.90;;;;;;5020923;28;20398;-76
2022/07/10 06:09:52;;;;;;;12.93;2.22;;;14.90;99.90;;;;;;5022198;28;20101;-75
2022/07/10 06:12:18;;;;;;;13.10;2.53;;;14.90;99.90;;;;;;5039593;28;20103;-75
2022/07/10 06:14:44;;;;;;;18.38;2.15;;;14.90;99.90;;;;;;5021062;28;20048;-75
2022/07/10 06:17:10;;;;;;;16.13;2.50;;;15.10;99.90;;;;;;5020182;28;20049;-76
2022/07/10 06:19:35;;;;;;;10.18;2.25;;;15.10;99.90;;;;;;5037272;28;20140;-77
2022/07/10 06:24:46;;;;;;;19.10;2.55;;;15.20;99.90;;;;;;5023422;28;20046;-75
2022/07/10 06:27:12;;;;;;;10.55;1.98;;;15.20;99.90;;;;;;5003773;28;20505;-76
2022/07/10 06:29:37;;;;;;;15.02;1.83;;;15.30;99.90;;;;;;5001357;28;20072;-74
2022/07/10 06:32:04;;;;;;;11.15;2.40;;;15.40;99.90;;;;;;5034471;28;20038;-75
2022/07/10 06:34:30;;;;;;;10.00;2.22;;;15.30;99.90;;;;;;5034296;28;20427;-74
2022/07/10 06:36:55;;;;;;;13.82;2.22;;;15.40;99.90;;;;;;5016465;28;20186;-75
2022/07/10 06:39:21;;;;;;;15.48;2.28;;;15.50;99.90;;;;;;5015942;28;20095;-75
2022/07/10 06:41:47;;;;;;;10.65;1.77;;;15.60;99.90;;;;;;5034241;28;20045;-75
2022/07/10 06:44:12;;;;;;;16.95;2.08;;;15.60;99.90;;;;;;5034771;28;20045;-76
2022/07/10 06:46:38;;;;;;;11.25;2.33;;;15.70;99.90;;;;;;5034650;28;20041;-75
2022/07/10 06:49:04;;;;;;;9.57;1.38;;;15.60;99.90;;;;;;5033503;28;20489;-73
2022/07/10 06:51:30;;;;;;;8.23;1.60;;;15.50;99.90;;;;;;4984274;28;20052;-75
2022/07/10 06:53:57;;;;;;;9.27;1.42;;;15.70;99.90;;;;;;5033902;28;20052;-76
2022/07/10 06:56:22;;;;;;;11.77;1.60;;;15.90;99.90;;;;;;5000942;28;20104;-76
2022/07/10 06:58:48;;;;;;;9.35;1.52;;;16.00;99.90;;;;;;5034215;28;20049;-76
2022/07/10 07:01:14;;;;;;;14.43;1.50;;;15.90;99.90;;;;;;5000648;28;20180;-75
2022/07/10 07:03:40;;;;;;;11.18;1.40;;;15.90;99.90;;;;;;4984019;28;20141;-75
2022/07/10 07:06:06;;;;;;;11.07;1.67;;;15.90;99.90;;;;;;5016545;28;20049;-75
2022/07/10 07:08:31;;;;;;;8.05;1.50;;;15.90;99.90;;;;;;5034546;28;20057;-74
2022/07/10 07:10:57;;;;;;;5.47;1.33;;;15.80;99.90;;;;;;5034661;28;20393;-74
2022/07/10 07:13:23;;;;;;;10.00;2.08;;;15.80;99.90;;;;;;5016990;28;20163;-73
2022/07/10 07:15:59;;;;;;;11.68;1.90;;;15.80;99.90;;;;;;5016998;28;20046;-75
2022/07/10 07:18:32;;;;;;;12.40;1.70;;;15.80;99.90;;;;;;5002174;28;20358;-75
2022/07/10 07:23:43;;;;;;;10.70;1.93;;;15.50;99.90;;;;;;5033558;28;20049;-74
2022/07/10 07:26:09;;;;;;;10.77;1.33;;;15.40;99.90;;;;;;5009365;28;20065;-74
2022/07/10 07:28:35;;;;;;;8.30;1.70;;;15.40;99.90;;;;;;5026432;28;20058;-74
2022/07/10 07:31:01;;;;;;;12.80;1.70;;;15.30;99.90;;;;;;5030029;28;20056;-75
2022/07/10 07:33:26;;;;;;;9.73;1.70;;;15.20;99.90;;;;;;4981225;28;20046;-75
2022/07/10 07:35:52;;;;;;;12.95;1.85;;;15.20;99.90;;;;;;5030457;28;20062;-76
2022/07/10 07:38:18;;;;;;;13.38;1.65;;;15.30;99.90;;;;;;4998324;28;20052;-73
2022/07/10 07:40:44;;;;;;;10.80;1.73;;;15.30;99.90;;;;;;4997060;28;20050;-73
2022/07/10 07:43:11;;;;;;;10.00;1.65;;;15.30;99.90;;;;;;4996406;28;20463;-72
2022/07/10 07:45:37;;;;;;;;;;;15.40;99.90;;;;;;4997956;28;20510;-74
2022/07/10 07:48:07;;;;;;;11.02;1.50;;;15.40;99.90;;;;;;5012416;28;19929;-74
2022/07/10 07:50:35;;;;;;;7.78;1.23;;;15.60;99.90;;;;;;4997002;28;20046;-76
2022/07/10 07:53:02;;;;;;;12.25;1.83;;;15.90;99.90;;;;;;4997005;28;20515;-75
2022/07/10 07:55:28;;;;;;;;;;;16.00;99.90;;;;;;4998284;28;20131;-75
2022/07/10 07:57:56;;;;;;;6.78;0.80;;;16.10;99.90;;;;;;4995640;28;19929;-74
2022/07/10 08:00:27;;;;;;;7.50;1.25;;;16.40;99.90;;;;;;4995944;28;20061;-73
2022/07/10 08:02:55;;;;;;;6.05;0.90;;;16.30;99.90;;;;;;5012550;28;20054;-76
2022/07/10 08:05:25;;;;;;;9.05;1.15;;;16.40;99.90;;;;;;5029501;28;20411;-73
2022/07/10 08:07:56;;;;;;;9.05;0.90;;;16.60;99.90;;;;;;5029951;28;20046;-73
2022/07/10 08:10:23;;;;;;;9.68;1.10;;;16.70;99.90;;;;;;4980226;28;20104;-74
2022/07/10 08:12:50;;;;;;;9.57;0.95;;;16.80;99.90;;;;;;4979409;28;20494;-73
2022/07/10 08:15:17;;;;;;;6.47;1.00;;;17.20;99.90;;;;;;4996342;28;20129;-74
2022/07/10 08:17:46;;;;;;;4.97;0.65;;;17.40;99.90;;;;;;5029086;28;20064;-77
2022/07/10 08:20:13;;;;;;;5.47;0.60;;;17.20;99.90;;;;;;5012221;28;20046;-75
2022/07/10 08:22:39;;;;;;;5.95;0.70;;;17.30;99.90;;;;;;4998916;28;20092;-76
2022/07/10 08:25:06;;;;;;;7.13;0.93;;;17.60;99.90;;;;;;4985787;28;20065;-74
2022/07/10 08:27:32;;;;;;;10.53;1.00;;;17.40;99.90;;;;;;5015768;28;20137;-73
2022/07/10 08:29:58;;;;;;;7.20;0.68;;;17.50;99.90;;;;;;5016297;28;20375;-74
2022/07/10 08:32:24;;;;;;;6.67;0.90;;;17.30;99.90;;;;;;4999621;28;20049;-75
2022/07/10 08:34:49;;;;;;;2.88;0.50;;;17.50;99.90;;;;;;5015168;28;20050;-75
2022/07/10 08:37:15;;;;;;;8.57;1.00;;;17.50;99.90;;;;;;5016461;28;20129;-76
2022/07/10 08:39:41;;;;;;;6.82;0.85;;;17.40;99.90;;;;;;5015381;28;20064;-73
2022/07/10 08:42:07;;;;;;;4.05;0.80;;;16.50;99.90;;;;;;5014940;28;20050;-74
2022/07/10 08:44:37;;;;;;;6.80;1.13;;;16.60;99.90;;;;;;5015281;28;20052;-74
2022/07/10 08:47:03;;;;;;;4.63;0.88;;;16.60;99.90;;;;;;5024550;28;20119;-74
2022/07/10 08:49:30;;;;;;;6.85;1.17;;;16.50;99.90;;;;;;5024889;28;20050;-74
2022/07/10 08:52:08;;;;;;;;;;;16.70;99.90;;;;;;5039790;28;20069;-77
2022/07/10 08:54:35;;;;;;;7.00;0.80;;;16.60;99.90;;;;;;5038189;28;19972;-74
2022/07/10 08:57:03;;;;;;;7.60;1.00;;;16.60;99.90;;;;;;5024917;28;20061;-74
2022/07/10 08:59:29;;;;;;;5.82;0.95;;;16.60;99.90;;;;;;5027592;28;20389;-74
2022/07/10 09:01:56;;;;;;;6.20;0.77;;;16.50;99.90;;;;;;5010319;28;20049;-75
2022/07/10 09:04:24;;;;;;;5.82;1.02;;;16.50;99.90;;;;;;5027553;28;20077;-73
2022/07/10 09:06:54;;;;;;;5.93;0.90;;;16.20;99.90;;;;;;5025645;28;20053;-75
2022/07/10 09:09:20;;;;;;;9.18;1.00;;;16.40;99.90;;;;;;5026536;28;20077;-74
2022/07/10 09:11:47;;;;;;;4.47;0.70;;;16.50;99.90;;;;;;5038640;28;20046;-77
2022/07/10 09:14:17;;;;;;;3.77;0.73;;;16.80;99.90;;;;;;5021450;28;20042;-75
2022/07/10 09:16:50;;;;;;;6.97;0.95;;;17.00;99.90;;;;;;5021667;28;20291;-76
2022/07/10 09:19:22;;;;;;;8.52;0.98;;;16.70;99.90;;;;;;5022342;28;20382;-77
2022/07/10 09:22:01;;;;;;;6.40;0.60;;;17.10;99.90;;;;;;5025350;28;20042;-74
2022/07/10 09:24:35;;;;;;;2.63;0.60;;;16.90;99.90;;;;;;5023281;28;20064;-73
2022/07/10 09:27:05;;;;;;;2.95;0.60;;;17.10;99.90;;;;;;5042265;28;20071;-73
2022/07/10 09:29:32;;;;;;;3.17;0.60;;;17.10;99.90;;;;;;5023838;28;20529;-74
2022/07/10 09:32:02;;;;;;;2.88;0.70;;;16.80;99.90;;;;;;5005161;28;20084;-73
2022/07/10 09:34:42;;;;;;;4.80;0.80;;;17.00;99.90;;;;;;5001668;28;20041;-75
2022/07/10 09:37:28;;;;;;;5.38;1.00;;;17.00;99.90;;;;;;5017981;28;20447;-74
2022/07/10 09:40:03;;;;;;;7.78;0.80;;;16.90;99.90;;;;;;5035988;28;20085;-74
2022/07/10 09:42:40;;;;;;;7.28;1.10;;;16.90;99.90;;;;;;5034204;28;20406;-74
2022/07/10 09:45:17;;;;;;;7.65;1.15;;;16.80;99.90;;;;;;5017356;28;20053;-74
2022/07/10 09:47:53;;;;;;;13.27;1.20;;;16.50;99.90;;;;;;5033755;28;20052;-77
2022/07/10 09:50:24;;;;;;;4.57;0.77;;;16.70;99.90;;;;;;5035486;28;20053;-74
2022/07/10 09:52:52;;;;;;;5.05;1.00;;;16.90;99.90;;;;;;5000103;28;20440;-73
2022/07/10 09:55:24;;;;;;;5.93;1.60;;;17.20;99.90;;;;;;5035119;28;20461;-74
2022/07/10 09:58:04;;;;;;;5.78;1.40;;;17.30;99.90;;;;;;5034736;28;20046;-75
2022/07/10 10:00:35;;;;;;;8.88;1.30;;;17.50;99.90;;;;;;5035135;28;20041;-74
2022/07/10 10:03:11;;;;;;;6.75;1.38;;;17.20;99.90;;;;;;5036158;28;20199;-76
2022/07/10 10:06:01;;;;;;;9.98;1.83;;;17.60;99.90;;;;;;5036258;28;20117;-76
2022/07/10 10:08:36;;;;;;;7.05;1.23;;;17.70;99.90;;;;;;5043423;28;20036;-75
2022/07/10 10:11:04;;;;;;;6.15;1.30;;;17.50;99.90;;;;;;5044322;28;20061;-75
2022/07/10 10:13:33;;;;;;;9.98;1.52;;;17.50;99.90;;;;;;5042756;28;20125;-73
2022/07/10 10:15:59;;;;;;;5.60;1.15;;;17.10;99.90;;;;;;5027182;28;20076;-74
2022/07/10 10:18:26;;;;;;;9.57;1.40;;;16.60;99.90;;;;;;5010263;28;20092;-75
2022/07/10 10:20:55;;;;;;;11.30;1.75;;;16.40;99.90;;;;;;5025561;28;20046;-75
2022/07/10 10:23:24;;;;;;;9.98;2.20;;;16.20;99.90;;;;;;5007868;28;20052;-76
2022/07/10 10:25:54;;;;;;;10.75;1.90;;;16.00;99.90;;;;;;5035962;28;20050;-77
2022/07/10 10:28:25;;;;;;;7.32;2.05;;;16.10;99.90;;;;;;5034149;28;20426;-76
2022/07/10 10:30:59;;;;;;;12.68;2.30;;;16.20;99.90;;;;;;5016330;28;20049;-75
2022/07/10 10:33:35;;;;;;;6.80;1.90;;;16.50;99.90;;;;;;5016401;28;20057;-76
2022/07/10 10:36:08;;;;;;;12.73;2.00;;;16.90;99.90;;;;;;5016705;28;20147;-77
2022/07/10 10:38:48;;;;;;;10.27;2.50;;;17.20;99.90;;;;;;5038840;28;20045;-76
2022/07/10 10:41:31;;;;;;;9.30;2.15;;;17.30;99.90;;;;;;5021085;28;20083;-79
2022/07/10 10:44:10;;;;;;;11.32;2.17;;;17.50;99.90;;;;;;5037426;28;20095;-76
2022/07/10 10:47:03;;;;;;;11.23;2.05;;;17.70;99.90;;;;;;5038390;28;20109;-77
2022/07/10 10:49:51;;;;;;;7.53;1.80;;;17.70;99.90;;;;;;5036005;28;20049;-76
2022/07/10 10:52:18;;;;;;;7.93;2.20;;;17.60;99.90;;;;;;5019744;28;20072;-77
2022/07/10 10:54:57;;;;;;;10.73;2.33;;;17.30;99.90;;;;;;5037635;28;20053;-76
2022/07/10 10:57:35;;;;;;;18.20;2.90;;;17.20;99.90;;;;;;5037245;28;20042;-78
2022/07/10 11:00:07;;;;;;;10.00;2.10;;;17.70;99.90;;;;;;5019298;28;20144;-76
2022/07/10 11:02:36;;;;;;;14.23;2.13;;;18.10;99.90;;;;;;5018666;28;20084;-74
2022/07/10 11:05:11;;;;;;;13.85;1.85;;;18.10;99.90;;;;;;5016738;28;20556;-75
2022/07/10 11:07:55;;;;;;;10.75;1.85;;;18.60;99.90;;;;;;5034870;28;20068;-77
2022/07/10 11:10:33;;;;;;;9.70;2.10;;;18.80;99.90;;;;;;5036326;28;20042;-76
2022/07/10 11:13:05;;;;;;;6.43;1.80;;;19.30;99.90;;;;;;5036520;28;20052;-77
2022/07/10 11:15:32;;;;;;;8.30;1.50;;;19.60;99.90;;;;;;5039451;28;20045;-76
2022/07/10 11:18:03;;;;;;;6.80;1.67;;;19.60;99.90;;;;;;5024053;28;20049;-78
2022/07/10 11:20:33;;;;;;;9.45;1.73;;;19.80;99.90;;;;;;5044773;28;20050;-77
2022/07/10 11:23:01;;;;;;;8.05;1.70;;;19.10;99.90;;;;;;5028034;28;20041;-77
2022/07/10 11:25:43;;;;;;;10.02;1.70;;;19.10;99.90;;;;;;5046941;28;20061;-78
2022/07/10 11:28:11;;;;;;;9.00;1.50;;;19.30;99.90;;;;;;5029358;28;20083;-78
2022/07/10 11:31:06;;;;;;;6.45;1.83;;;18.90;99.90;;;;;;5043825;28;20049;-77
2022/07/10 11:33:44;;;;;;;7.32;1.88;;;18.90;99.90;;;;;;5006046;28;20053;-78
2022/07/10 11:36:19;;;;;;;12.88;2.10;;;18.20;99.90;;;;;;5044543;28;20080;-77
2022/07/10 11:38:45;;;;;;;11.82;2.40;;;18.10;99.90;;;;;;5025966;28;20052;-78
2022/07/10 11:41:19;;;;;;;9.75;2.00;;;17.90;99.90;;;;;;5042054;28;20219;-77
2022/07/10 11:44:04;;;;;;;9.15;2.35;;;17.90;99.90;;;;;;5041992;28;20053;-78
2022/07/10 11:46:32;;;;;;;11.45;2.60;;;17.80;99.90;;;;;;5008542;28;20053;-75
2022/07/10 11:49:04;;;;;;;8.23;2.30;;;17.90;99.90;;;;;;5042147;28;20083;-77
2022/07/10 11:51:37;;;;;;;6.70;2.15;;;18.10;99.90;;;;;;4990899;28;20060;-77
2022/07/10 11:54:11;;;;;;;10.18;2.10;;;18.50;99.90;;;;;;5019059;28;20045;-78
2022/07/10 11:56:43;;;;;;;7.78;2.05;;;18.70;99.90;;;;;;5035666;28;20049;-77
2022/07/10 11:59:11;;;;;;;7.80;2.15;;;18.20;99.90;;;;;;5017878;28;20137;-76
2022/07/10 12:01:48;;;;;;;9.35;1.95;;;18.00;99.90;;;;;;5003507;28;20053;-76
2022/07/10 12:04:22;;;;;;;9.57;1.90;;;18.00;99.90;;;;;;5002365;28;20087;-79
2022/07/10 12:06:49;;;;;;;10.60;2.38;;;17.90;99.90;;;;;;5018593;28;20081;-76
2022/07/10 12:09:15;;;;;;;;;;;18.30;99.90;;;;;;5003960;28;20041;-77
2022/07/10 12:11:42;;;;;;;;;;;18.60;99.90;;;;;;5019920;28;20007;-76
2022/07/10 12:14:28;;;;;;;8.68;1.45;;;18.90;99.90;;;;;;5018393;28;19921;-77
2022/07/10 12:16:56;;;;;;;5.35;0.82;;;19.20;99.90;;;;;;5005650;28;20120;-77
2022/07/10 12:19:32;;;;;;;5.65;0.90;;;19.00;99.90;;;;;;5021344;28;20087;-76
2022/07/10 12:22:00;;;;;;;8.05;1.25;;;19.10;99.90;;;;;;5039072;28;20061;-75
2022/07/10 12:24:26;;;;;;;4.72;0.88;;;18.90;99.90;;;;;;5021536;28;20594;-76
2022/07/10 12:26:55;;;;;;;6.00;1.20;;;19.20;99.90;;;;;;5020723;28;20116;-76
2022/07/10 12:29:27;;;;;;;11.60;1.67;;;19.20;99.90;;;;;;4987207;28;20384;-76
2022/07/10 12:31:56;;;;;;;10.13;1.73;;;19.20;99.90;;;;;;5003463;28;20073;-77
2022/07/10 12:34:46;;;;;;;7.53;1.52;;;19.40;99.90;;;;;;5037905;28;20485;-76
2022/07/10 12:37:16;;;;;;;9.00;1.77;;;19.80;99.90;;;;;;5038360;28;20131;-76
2022/07/10 12:39:53;;;;;;;7.53;1.45;;;19.70;99.90;;;;;;5021130;28;20053;-77
2022/07/10 12:42:27;;;;;;;5.47;1.52;;;19.50;99.90;;;;;;5021936;28;20057;-76
2022/07/10 12:44:53;;;;;;;9.00;1.55;;;19.80;99.90;;;;;;5005898;28;20045;-77
2022/07/10 12:47:21;;;;;;;11.10;1.85;;;19.40;99.90;;;;;;5038554;28;20053;-79
2022/07/10 12:50:03;;;;;;;10.35;1.60;;;19.50;99.90;;;;;;5004774;28;20056;-77
2022/07/10 12:52:34;;;;;;;7.57;1.80;;;19.70;99.90;;;;;;5020190;28;20052;-76
2022/07/10 12:55:10;;;;;;;4.47;1.50;;;19.30;99.90;;;;;;5037255;28;20091;-74
2022/07/10 12:57:47;;;;;;;8.13;1.60;;;19.40;99.90;;;;;;5003553;28;20045;-79